createdAt,value
2023-05-15T00:13:03.805Z,86.77
2023-05-15T00:23:05.394Z,83.20
2023-05-15T00:33:07.304Z,79.13
2023-05-15T00:43:11.048Z,80.14
2023-05-15T00:53:12.746Z,80.89
2023-05-15T01:03:14.411Z,81.53
2023-05-15T01:13:16.153Z,81.72
2023-05-15T01:23:26.251Z,82.83
2023-05-15T01:33:35.760Z,90.25
2023-05-15T01:43:41.577Z,90.33
2023-05-15T01:53:45.333Z,83.54
2023-05-15T02:03:47.654Z,83.43
2023-05-15T02:13:50.370Z,84.13
2023-05-15T02:23:51.851Z,83.98
2023-05-15T02:34:03.802Z,84.57
2023-05-15T02:44:06.144Z,83.00
2023-05-15T02:54:09.502Z,83.55
2023-05-15T03:04:10.936Z,85.12
2023-05-15T03:14:12.356Z,83.73
2023-05-15T03:24:13.869Z,87.71
2023-05-15T03:34:15.375Z,85.18
2023-05-15T03:44:17.012Z,89.73
2023-05-15T03:54:18.559Z,90.07
2023-05-15T04:04:20.044Z,87.04
2023-05-15T04:14:22.334Z,85.85
2023-05-15T04:24:23.681Z,87.10
2023-05-15T04:34:25.348Z,94.38
2023-05-15T04:44:26.821Z,93.10
2023-05-15T04:54:28.330Z,86.13
2023-05-15T05:04:29.704Z,87.48
2023-05-15T05:14:31.837Z,87.90
2023-05-15T05:24:35.714Z,86.96
2023-05-15T05:34:37.220Z,86.43
2023-05-15T05:44:38.693Z,84.74
2023-05-15T05:54:40.124Z,87.88
2023-05-15T06:04:41.518Z,86.50
2023-05-15T06:14:42.975Z,85.40
2023-05-15T06:24:44.411Z,83.97
2023-05-15T06:34:45.772Z,84.75
2023-05-15T06:44:49.623Z,85.02
2023-05-15T06:54:52.040Z,84.87
2023-05-15T07:04:53.604Z,84.26
2023-05-15T07:14:54.970Z,84.40
2023-05-15T07:24:56.477Z,82.40
2023-05-15T07:34:57.918Z,82.03
2023-05-15T07:44:59.463Z,82.06
2023-05-15T07:55:01.349Z,81.36
2023-05-15T08:05:02.955Z,80.75
2023-05-15T08:15:04.581Z,79.59
2023-05-15T08:25:06.989Z,78.34
2023-05-15T08:35:08.571Z,77.35
2023-05-15T08:45:10.530Z,75.00
2023-05-15T08:55:12.345Z,76.40
2023-05-15T09:05:13.768Z,73.84
2023-05-15T09:15:17.812Z,71.80
2023-05-15T09:25:38.239Z,69.04
2023-05-15T09:35:40.944Z,70.17
2023-05-15T09:45:43.163Z,71.29
2023-05-15T09:55:45.233Z,69.80
2023-05-15T10:05:47.042Z,69.79
2023-05-15T10:15:49.657Z,68.23
2023-05-15T10:26:00.732Z,67.92
2023-05-15T10:36:04.348Z,66.70
2023-05-15T10:46:06.754Z,65.33
2023-05-15T10:56:13.263Z,61.29
2023-05-15T11:06:14.790Z,62.74
2023-05-15T11:16:54.128Z,60.05
2023-05-15T11:27:03.609Z,59.56
2023-05-15T11:37:17.292Z,62.91
2023-05-15T11:47:18.804Z,63.14
2023-05-15T11:57:20.657Z,61.28
2023-05-15T12:07:22.299Z,61.95
2023-05-15T12:17:24.391Z,63.30
2023-05-15T12:27:26.494Z,60.26
2023-05-15T12:37:31.027Z,62.66
2023-05-15T12:47:32.469Z,59.90
2023-05-15T12:57:36.082Z,62.25
2023-05-15T13:07:41.627Z,60.29
2023-05-15T13:17:43.045Z,62.01
2023-05-15T13:27:45.104Z,62.44
2023-05-15T13:37:47.159Z,62.98
2023-05-15T13:47:48.687Z,63.81
2023-05-15T13:57:51.336Z,63.29
2023-05-15T14:07:52.958Z,59.92
2023-05-15T14:17:54.442Z,62.45
2023-05-15T14:27:55.936Z,62.19
2023-05-15T14:37:57.416Z,61.36
2023-05-15T14:47:58.953Z,64.43
2023-05-15T14:58:00.367Z,62.92
2023-05-15T15:08:05.484Z,61.89
2023-05-15T15:18:07.842Z,63.18
2023-05-15T15:28:09.618Z,63.40
2023-05-15T15:38:13.294Z,64.04
2023-05-15T15:48:14.908Z,63.29
2023-05-15T15:58:16.480Z,65.36
2023-05-15T16:08:17.947Z,66.10
2023-05-15T16:18:19.517Z,65.78
2023-05-15T16:28:21.128Z,65.95
2023-05-15T16:38:23.207Z,65.51
2023-05-15T16:48:27.268Z,65.69
2023-05-15T16:58:28.786Z,65.58
2023-05-15T17:08:30.310Z,66.82
2023-05-15T17:18:31.692Z,70.80
2023-05-15T17:28:33.082Z,73.50
2023-05-15T17:38:34.630Z,78.38
2023-05-15T17:48:36.102Z,79.62
2023-05-15T17:58:37.673Z,79.91
2023-05-15T18:08:40.148Z,82.36
2023-05-15T18:18:42.477Z,81.47
2023-05-15T18:28:44.135Z,82.91
2023-05-15T18:38:45.996Z,81.97
2023-05-15T18:48:47.620Z,81.86
2023-05-15T18:58:49.162Z,83.22
2023-05-15T19:08:50.784Z,82.59
2023-05-15T19:18:52.383Z,82.75
2023-05-15T19:28:54.304Z,83.33
2023-05-15T19:38:56.007Z,83.46
2023-05-15T19:48:57.846Z,82.92
2023-05-15T19:59:00.468Z,82.86
2023-05-15T20:09:01.944Z,84.15
2023-05-15T20:19:04.145Z,83.66
2023-05-15T20:29:05.749Z,82.19
2023-05-15T20:39:07.352Z,82.91
2023-05-15T20:49:09.061Z,82.71
2023-05-15T20:59:10.726Z,83.62
2023-05-15T21:09:14.154Z,82.49
2023-05-15T21:19:15.889Z,84.31
2023-05-15T21:29:17.464Z,85.28
2023-05-15T21:39:19.049Z,82.51
2023-05-15T21:49:20.478Z,83.60
2023-05-15T21:59:21.997Z,85.04
2023-05-15T22:09:23.492Z,86.03
2023-05-15T22:19:33.039Z,87.13
2023-05-15T22:29:35.049Z,92.35
2023-05-15T22:39:36.867Z,93.57
2023-05-15T22:49:38.262Z,97.39
2023-05-15T22:59:39.748Z,97.42
2023-05-15T23:09:41.298Z,100.00
2023-05-15T23:19:42.798Z,100.00
2023-05-15T23:29:44.182Z,100.00
2023-05-15T23:39:45.676Z,100.00
2023-05-15T23:49:47.446Z,97.93
2023-05-15T23:59:48.781Z,99.65
